Archival Weather

Aeroparque Jorge Newbery

Aeroparque Jorge Newbery, Argentina (SABE)

Report from: Saturday, May 14, 2022 9:00 PM -03
Current time: Sunday, June 26, 2022 2:09 PM -03

Current weather
Weather history
Weather forecast

Temperature15.0°C (59.0°F)
Dew point2.0°C (35.6°F)
Winds 6 kts (3.1 m/s, 6.9 mph) Vrb
Winds variableWinds variable from Southeast (130°) to Southwest (230°)
Clouds Sky clear
Altimeter30.09 in.Hg (1019 mB)
Relative humidity41 %
Density altitude-87 ft. (-26 m)
Remarks Ceiling and visibility OK
Corrected report
No significant changes expected in the next two hours
Flight conditions Visual Meteorological Conditions
Raw dataCOR SABE 150000Z 18006KT 230V130 CAVOK 15/02 Q1019 NOSIG
An error has occurred. This application may no longer respond until reloaded. Reload 🗙